createdAt,value
2019-05-06T00:05:47.973Z,17.67
2019-05-06T00:11:49.627Z,16.42
2019-05-06T00:17:51.345Z,12.03
2019-05-06T00:23:54.615Z,9.13
2019-05-06T00:29:56.339Z,15.85
2019-05-06T00:36:00.346Z,13.80
2019-05-06T00:42:04.282Z,18.67
2019-05-06T00:48:05.843Z,14.58
2019-05-06T00:54:14.155Z,16.45
2019-05-06T01:00:18.197Z,16.97
2019-05-06T01:06:19.764Z,20.27
2019-05-06T01:12:21.471Z,21.05
2019-05-06T01:18:24.497Z,15.28
2019-05-06T01:24:26.248Z,15.38
2019-05-06T01:30:27.920Z,15.05
2019-05-06T01:36:29.378Z,24.32
2019-05-06T01:42:35.771Z,16.97
2019-05-06T01:48:46.176Z,14.30
2019-05-06T01:54:47.758Z,17.27
2019-05-06T02:00:49.422Z,15.00
2019-05-06T02:06:51.198Z,13.25
2019-05-06T02:12:54.099Z,10.68
2019-05-06T02:18:56.631Z,17.82
2019-05-06T02:25:04.507Z,13.53
2019-05-06T02:37:46.425Z,15.20
2019-05-06T02:43:48.118Z,12.78
2019-05-06T02:49:53.517Z,14.68
2019-05-06T02:55:55.955Z,16.55
2019-05-06T03:01:57.511Z,12.88
2019-05-06T03:07:59.103Z,14.55
2019-05-06T03:14:03.086Z,14.13
2019-05-06T03:20:06.776Z,16.10
2019-05-06T03:26:09.300Z,17.65
2019-05-06T03:32:21.472Z,10.08
2019-05-06T03:38:14.421Z,17.55
2019-05-06T03:44:16.685Z,18.55
2019-05-06T03:50:18.643Z,15.60
2019-05-06T03:56:23.611Z,13.50
2019-05-06T04:02:24.338Z,11.63
2019-05-06T04:08:26.459Z,12.23
2019-05-06T04:14:30.112Z,14.83
2019-05-06T04:20:39.379Z,16.52
2019-05-06T04:26:45.980Z,16.73
2019-05-06T04:32:46.658Z,14.68
2019-05-06T04:38:48.346Z,18.27
2019-05-06T04:44:52.943Z,19.37
2019-05-06T04:50:54.058Z,19.62
2019-05-06T04:56:55.989Z,22.55
2019-05-06T05:02:59.089Z,21.27
2019-05-06T05:09:02.763Z,25.02
2019-05-06T05:15:11.854Z,20.80
2019-05-06T05:21:14.553Z,20.20
2019-05-06T05:27:16.404Z,22.00
2019-05-06T05:33:18.462Z,18.57
2019-05-06T05:39:21.823Z,17.07
2019-05-06T05:45:23.726Z,16.25
2019-05-06T05:51:25.586Z,20.80
2019-05-06T05:57:27.286Z,24.30
2019-05-06T06:03:29.067Z,18.40
2019-05-06T06:09:32.916Z,22.85
2019-05-06T06:15:45.599Z,19.95
2019-05-06T06:21:52.405Z,26.25
2019-05-06T06:27:56.010Z,21.55
2019-05-06T06:34:03.122Z,17.60
2019-05-06T06:40:06.410Z,21.60
2019-05-06T06:46:09.386Z,16.80
2019-05-06T06:52:14.592Z,20.37
2019-05-06T06:58:22.876Z,18.73
2019-05-06T07:04:27.885Z,23.20
2019-05-06T07:10:44.816Z,21.52
2019-05-06T07:16:47.885Z,22.13
2019-05-06T07:22:49.664Z,18.45
2019-05-06T07:28:52.683Z,18.15
2019-05-06T07:34:54.580Z,19.90
2019-05-06T07:41:14.445Z,19.45
2019-05-06T07:47:15.886Z,11.12
2019-05-06T07:53:17.738Z,18.10
2019-05-06T07:59:19.493Z,16.42
2019-05-06T08:05:22.399Z,18.27
2019-05-06T08:11:26.121Z,13.30
2019-05-06T08:17:29.666Z,15.08
2019-05-06T08:23:35.933Z,11.22
2019-05-06T08:29:37.653Z,12.55
2019-05-06T08:35:39.586Z,14.20
2019-05-06T08:41:42.314Z,12.65
2019-05-06T08:47:43.857Z,10.68
2019-05-06T08:53:50.217Z,17.50
2019-05-06T08:59:53.640Z,13.43
2019-05-06T09:05:55.386Z,13.35
2019-05-06T09:17:55.090Z,13.30
2019-05-06T09:23:56.864Z,13.28
2019-05-06T09:30:02.832Z,17.23
2019-05-06T09:36:06.344Z,14.05
2019-05-06T09:42:08.230Z,10.32
2019-05-06T09:48:14.750Z,9.15
2019-05-06T09:54:18.316Z,10.95
2019-05-06T10:00:23.331Z,9.95
2019-05-06T10:06:24.383Z,11.80
2019-05-06T10:12:26.299Z,13.38
2019-05-06T10:18:28.083Z,10.10
2019-05-06T10:24:29.611Z,10.50
2019-05-06T10:30:33.175Z,8.78
2019-05-06T10:36:39.852Z,9.13
2019-05-06T10:42:45.318Z,8.38
2019-05-06T10:48:46.910Z,8.80
2019-05-06T10:54:48.459Z,7.42
2019-05-06T11:01:12.476Z,6.10
2019-05-06T11:07:28.268Z,8.30
2019-05-06T11:13:18.194Z,8.88
2019-05-06T11:19:19.866Z,12.05
2019-05-06T11:25:23.045Z,5.33
2019-05-06T11:31:43.257Z,7.55
2019-05-06T11:37:54.359Z,8.28
2019-05-06T11:43:55.942Z,9.95
2019-05-06T11:49:58.197Z,5.80
2019-05-06T11:56:02.064Z,10.75
2019-05-06T12:02:05.622Z,7.75
2019-05-06T12:08:08.167Z,8.33
2019-05-06T12:14:12.211Z,6.25
2019-05-06T12:20:13.634Z,4.95
2019-05-06T12:26:15.312Z,11.18
2019-05-06T12:32:22.440Z,7.30
2019-05-06T12:38:30.447Z,7.72
2019-05-06T12:44:29.150Z,10.78
2019-05-06T12:50:33.060Z,9.15
2019-05-06T12:56:34.283Z,6.78
2019-05-06T13:02:36.040Z,7.35
2019-05-06T13:08:54.060Z,7.50
2019-05-06T13:14:43.038Z,5.47
2019-05-06T13:20:49.946Z,7.55
2019-05-06T13:26:48.031Z,8.28
2019-05-06T13:33:08.066Z,12.95
2019-05-06T13:39:14.669Z,4.83
2019-05-06T13:45:13.682Z,7.08
2019-05-06T13:51:17.239Z,8.50
2019-05-06T13:57:18.869Z,9.30
2019-05-06T14:03:20.559Z,6.53
2019-05-06T14:09:29.529Z,9.80
2019-05-06T14:15:25.614Z,8.98
2019-05-06T14:21:27.257Z,8.28
2019-05-06T14:27:28.962Z,8.25
2019-05-06T14:33:32.331Z,12.10
2019-05-06T14:39:50.222Z,8.43
2019-05-06T14:45:39.445Z,9.93
2019-05-06T14:51:42.613Z,6.92
2019-05-06T14:57:44.497Z,10.05
2019-05-06T15:03:46.204Z,9.10
2019-05-06T15:09:58.446Z,8.58
2019-05-06T15:15:52.958Z,11.15
2019-05-06T15:21:54.539Z,9.63
2019-05-06T15:27:56.006Z,9.88
2019-05-06T15:33:59.498Z,9.05
2019-05-06T15:40:03.048Z,6.78
2019-05-06T15:46:04.285Z,9.60
2019-05-06T15:52:05.847Z,8.68
2019-05-06T15:58:07.389Z,9.63
2019-05-06T16:04:08.916Z,15.65
2019-05-06T16:10:13.126Z,12.28
2019-05-06T16:16:14.276Z,9.08
2019-05-06T16:22:15.927Z,7.55
2019-05-06T16:28:17.594Z,8.53
2019-05-06T16:34:19.251Z,15.13
2019-05-06T16:40:22.984Z,9.33
2019-05-06T16:46:24.384Z,8.08
2019-05-06T16:52:25.985Z,8.65
2019-05-06T16:58:40.071Z,9.13
2019-05-06T17:04:46.561Z,7.92
2019-05-06T17:10:48.075Z,11.70
2019-05-06T17:16:49.564Z,9.00
2019-05-06T17:22:53.166Z,12.70
2019-05-06T17:29:02.695Z,8.30
2019-05-06T17:35:05.578Z,10.68
2019-05-06T17:41:07.204Z,8.85
2019-05-06T17:47:16.316Z,9.50
2019-05-06T17:53:17.870Z,8.60
2019-05-06T17:59:19.391Z,11.85
2019-05-06T18:05:22.843Z,13.62
2019-05-06T18:11:24.407Z,12.20
2019-05-06T18:17:25.943Z,10.65
2019-05-06T18:23:27.738Z,11.60
2019-05-06T18:29:29.189Z,8.15
2019-05-06T18:35:30.708Z,11.50
2019-05-06T18:41:33.179Z,11.83
2019-05-06T18:47:34.683Z,15.00
2019-05-06T18:53:36.329Z,12.35
2019-05-06T18:59:37.871Z,11.90
2019-05-06T19:05:42.947Z,12.05
2019-05-06T19:11:44.900Z,15.23
2019-05-06T19:17:46.610Z,13.13
2019-05-06T19:23:48.096Z,14.80
2019-05-06T19:29:49.792Z,18.98
2019-05-06T19:35:52.361Z,15.80
2019-05-06T19:41:57.233Z,13.53
2019-05-06T19:47:58.640Z,18.32
2019-05-06T19:54:02.101Z,17.12
2019-05-06T20:00:05.593Z,18.32
2019-05-06T20:06:28.850Z,18.25
2019-05-06T20:12:43.386Z,16.75
2019-05-06T20:18:45.029Z,19.02
2019-05-06T20:24:47.711Z,18.42
2019-05-06T20:30:49.256Z,23.30
2019-05-06T20:36:52.841Z,17.17
2019-05-06T20:42:54.151Z,23.70
2019-05-06T20:48:56.005Z,23.42
2019-05-06T20:54:59.467Z,26.37
2019-05-06T21:01:02.891Z,30.32
2019-05-06T21:07:04.264Z,28.02
2019-05-06T21:13:05.802Z,27.77
2019-05-06T21:19:07.292Z,23.15
2019-05-06T21:25:09.073Z,28.62
2019-05-06T21:31:12.488Z,27.10
2019-05-06T21:37:14.001Z,32.98
2019-05-06T21:43:15.586Z,28.25
2019-05-06T21:49:18.462Z,26.73
2019-05-06T21:55:20.144Z,30.10
2019-05-06T22:01:22.275Z,28.30
2019-05-06T22:07:23.821Z,27.20
2019-05-06T22:13:25.433Z,28.85
2019-05-06T22:19:27.005Z,27.67
2019-05-06T22:25:28.615Z,34.18
2019-05-06T22:31:30.288Z,35.23
2019-05-06T22:37:33.149Z,33.95
2019-05-06T22:43:37.938Z,31.52
2019-05-06T22:49:39.874Z,35.40
2019-05-06T22:55:44.046Z,38.13
2019-05-06T23:01:57.382Z,36.10
2019-05-06T23:08:02.671Z,33.83
2019-05-06T23:14:02.856Z,32.03
2019-05-06T23:20:06.475Z,32.55
2019-05-06T23:26:22.910Z,25.70
2019-05-06T23:32:24.564Z,23.95
2019-05-06T23:39:04.879Z,20.88
2019-05-06T23:45:44.117Z,23.02
2019-05-06T23:52:22.790Z,19.25
2019-05-06T23:58:25.182Z,21.62
